Time;durP1;ratioP1;P1;durP2;ratioP2;P2;SDS_P1;SDS_P2;PMS_P1;PMS_P2;Temp;Humidity;BMP_temperature;BMP_pressure;BME280_temperature;BME280_humidity;BME280_pressure;Samples;Min_cycle;Max_cycle;Signal;HPM_P1;HPM_P2
2022/11/20 00:01:30;;;;;;;1.07;1.07;;;4.80;94.60;3.90;95417.00;;;;5093515;28;20194;-57
2022/11/20 00:03:58;;;;;;;1.00;1.00;;;4.80;95.10;3.90;95413.00;;;;5075225;28;20671;-55
2022/11/20 00:06:27;;;;;;;0.80;0.80;;;4.80;95.80;3.90;95410.00;;;;5093247;28;20255;-55
2022/11/20 00:08:58;;;;;;;0.80;0.80;;;4.70;95.40;3.80;95404.00;;;;5093296;28;20222;-57
2022/11/20 00:11:28;;;;;;;0.70;0.70;;;4.70;95.50;3.90;95414.00;;;;5093193;28;20232;-57
2022/11/20 00:13:57;;;;;;;0.50;0.50;;;4.70;95.10;3.90;95417.00;;;;5093023;28;20226;-58
2022/11/20 00:16:28;;;;;;;0.60;0.60;;;4.70;95.10;3.80;95421.00;;;;5093016;28;20226;-58
2022/11/20 00:18:55;;;;;;;0.70;0.70;;;4.60;95.30;3.70;95410.00;;;;5092998;28;20199;-56
2022/11/20 00:21:24;;;;;;;0.60;0.60;;;4.70;95.70;3.70;95415.00;;;;5096252;28;20285;-57
2022/11/20 00:23:54;;;;;;;0.90;0.90;;;4.60;95.60;3.70;95416.00;;;;5096827;28;20616;-57
2022/11/20 00:26:23;;;;;;;1.60;0.90;;;4.70;96.40;3.80;95410.00;;;;5096508;28;20207;-57
2022/11/20 00:28:52;;;;;;;0.60;0.60;;;4.70;96.50;3.80;95423.00;;;;5095741;28;20313;-57
2022/11/20 00:31:19;;;;;;;2.80;1.43;;;4.70;96.50;3.70;95422.00;;;;5095558;28;20549;-58
2022/11/20 00:33:48;;;;;;;1.13;1.10;;;4.60;95.60;3.60;95425.00;;;;5096478;28;20250;-57
2022/11/20 00:36:18;;;;;;;1.07;1.07;;;4.60;96.20;3.60;95431.00;;;;5096246;28;20682;-59
2022/11/20 00:38:45;;;;;;;3.80;1.20;;;4.50;96.30;3.50;95418.00;;;;5096498;28;20530;-59
2022/11/20 00:41:14;;;;;;;0.90;0.90;;;4.50;96.60;3.50;95425.00;;;;5096542;28;20214;-56
2022/11/20 00:43:42;;;;;;;0.90;0.90;;;4.50;97.00;3.50;95428.00;;;;5096367;28;20207;-56
2022/11/20 00:46:11;;;;;;;0.77;0.77;;;4.40;97.50;3.50;95420.00;;;;5096428;28;20214;-56
2022/11/20 00:48:38;;;;;;;0.77;0.77;;;4.40;96.90;3.40;95421.00;;;;5096389;28;20195;-56
2022/11/20 00:51:05;;;;;;;0.83;0.83;;;4.40;97.10;3.40;95427.00;;;;5096350;28;20218;-55
2022/11/20 00:53:32;;;;;;;0.83;0.83;;;4.30;99.80;3.40;95422.00;;;;5096240;28;20213;-56
2022/11/20 00:56:01;;;;;;;0.77;0.77;;;4.30;97.70;3.30;95425.00;;;;5096245;28;20238;-56
2022/11/20 00:58:33;;;;;;;0.70;0.70;;;4.30;98.20;3.30;95430.00;;;;5096190;28;20214;-55
2022/11/20 01:01:06;;;;;;;1.10;1.10;;;4.20;98.20;3.30;95431.00;;;;5095949;28;20274;-55
2022/11/20 01:03:33;;;;;;;0.80;0.80;;;4.20;98.30;3.20;95423.00;;;;5096135;28;20198;-55
2022/11/20 01:06:01;;;;;;;0.90;0.90;;;4.20;99.00;3.30;95421.00;;;;5096095;28;20222;-55
2022/11/20 01:08:31;;;;;;;1.00;1.00;;;4.30;98.60;3.40;95421.00;;;;5096357;28;20267;-57
2022/11/20 01:11:01;;;;;;;0.70;0.70;;;4.30;99.30;3.40;95423.00;;;;5096044;28;20195;-60
2022/11/20 01:13:38;;;;;;;0.60;0.60;;;4.30;98.50;3.40;95423.00;;;;5096017;28;20252;-56
2022/11/20 01:16:08;;;;;;;0.60;0.60;;;4.30;98.10;3.40;95417.00;;;;5096041;28;20825;-57
2022/11/20 01:18:36;;;;;;;1.70;1.57;;;4.30;98.70;3.40;95420.00;;;;5094797;28;20628;-57
2022/11/20 01:21:06;;;;;;;0.73;0.73;;;4.30;97.70;3.40;95421.00;;;;5095891;28;20202;-56
2022/11/20 01:23:34;;;;;;;1.07;1.07;;;4.40;98.20;3.40;95425.00;;;;5095710;28;20223;-56
2022/11/20 01:26:03;;;;;;;0.70;0.70;;;4.30;97.40;3.30;95421.00;;;;5095473;28;20550;-56
2022/11/20 01:28:30;;;;;;;0.80;0.80;;;4.20;97.30;3.20;95417.00;;;;5095573;28;20226;-56
2022/11/20 01:30:57;;;;;;;1.37;1.33;;;4.10;97.00;3.10;95425.00;;;;5095095;28;20191;-60
2022/11/20 01:33:24;;;;;;;0.70;0.70;;;4.10;97.00;3.10;95429.00;;;;5094402;28;20207;-56
2022/11/20 01:35:51;;;;;;;2.13;1.40;;;4.10;97.30;3.10;95424.00;;;;5095380;28;20240;-56
2022/11/20 01:38:19;;;;;;;0.60;0.60;;;4.10;97.50;3.10;95429.00;;;;5094510;28;20592;-56
2022/11/20 01:40:53;;;;;;;5.37;1.10;;;4.10;98.10;3.10;95421.00;;;;5095526;28;20674;-56
2022/11/20 01:43:20;;;;;;;0.93;0.93;;;4.10;97.80;3.00;95420.00;;;;5095561;28;20206;-55
2022/11/20 01:46:14;;;;;;;1.20;1.10;;;4.00;97.40;2.90;95423.00;;;;5095352;28;20219;-59
2022/11/20 01:48:50;;;;;;;0.73;0.73;;;3.80;97.10;2.80;95418.00;;;;5095467;28;20249;-59
2022/11/20 01:51:25;;;;;;;0.70;0.70;;;3.80;97.80;2.70;95421.00;;;;5095067;28;20210;-56
2022/11/20 01:53:56;;;;;;;0.70;0.70;;;3.70;98.10;2.70;95426.00;;;;5095264;28;20202;-57
2022/11/20 01:56:28;;;;;;;0.60;0.60;;;3.70;98.60;2.80;95427.00;;;;5095001;28;20252;-56
2022/11/20 01:59:00;;;;;;;0.60;0.60;;;3.70;98.20;2.70;95420.00;;;;5095215;28;20592;-57
2022/11/20 02:01:27;;;;;;;0.80;0.80;;;3.60;98.30;2.70;95431.00;;;;5095165;28;20194;-56
2022/11/20 02:03:59;;;;;;;1.07;1.03;;;3.70;99.10;2.70;95413.00;;;;5095081;28;20222;-58
2022/11/20 02:06:31;;;;;;;0.70;0.70;;;3.70;98.40;2.60;95412.00;;;;5094978;28;20256;-57
2022/11/20 02:08:58;;;;;;;0.90;0.90;;;3.60;99.00;2.60;95422.00;;;;5094288;28;20233;-57
2022/11/20 02:11:24;;;;;;;1.00;1.00;;;3.70;99.20;2.70;95414.00;;;;5093958;28;20259;-56
2022/11/20 02:13:51;;;;;;;0.83;0.83;;;3.80;99.40;2.80;95427.00;;;;5094760;28;20561;-56
2022/11/20 02:16:23;;;;;;;0.77;0.77;;;3.70;98.70;2.80;95415.00;;;;5094736;28;20265;-56
2022/11/20 02:18:51;;;;;;;0.80;0.80;;;3.80;98.60;2.80;95411.00;;;;5094864;28;20577;-56
2022/11/20 02:21:32;;;;;;;1.13;1.13;;;3.80;98.70;2.90;95399.00;;;;5093733;28;20206;-56
2022/11/20 02:24:07;;;;;;;1.23;1.23;;;3.80;98.70;2.90;95406.00;;;;5094796;28;20194;-56
2022/11/20 02:26:42;;;;;;;2.83;1.60;;;3.80;99.40;3.00;95408.00;;;;5077165;28;20206;-56
2022/11/20 02:29:09;;;;;;;0.60;0.60;;;4.00;99.10;3.00;95414.00;;;;5094696;28;20198;-56
2022/11/20 02:31:42;;;;;;;0.80;0.80;;;4.00;99.70;3.00;95404.00;;;;5094683;28;20195;-57
2022/11/20 02:34:09;;;;;;;1.00;1.00;;;3.80;99.90;2.90;95425.00;;;;5094763;28;20220;-58
2022/11/20 02:36:41;;;;;;;0.70;0.70;;;3.80;97.60;2.90;95411.00;;;;5094237;28;20286;-56
2022/11/20 02:39:16;;;;;;;0.83;0.83;;;3.80;98.30;3.00;95410.00;;;;5093644;28;20210;-56
2022/11/20 02:41:43;;;;;;;0.87;0.87;;;3.90;98.80;3.00;95421.00;;;;5094395;28;20222;-55
2022/11/20 02:44:09;;;;;;;0.93;0.93;;;4.00;99.90;3.10;95411.00;;;;5093339;28;20202;-56
2022/11/20 02:46:36;;;;;;;0.80;0.80;;;4.00;98.40;3.10;95413.00;;;;5094598;28;20202;-56
2022/11/20 02:49:04;;;;;;;0.97;0.97;;;4.10;98.40;3.10;95410.00;;;;5094347;28;20674;-58
2022/11/20 02:51:33;;;;;;;0.80;0.80;;;4.10;98.50;3.20;95414.00;;;;5094291;28;20210;-56
2022/11/20 02:53:59;;;;;;;0.70;0.70;;;4.10;98.30;3.20;95409.00;;;;5094205;28;20520;-57
2022/11/20 02:56:27;;;;;;;0.70;0.70;;;4.10;98.20;3.20;95414.00;;;;5094153;28;20674;-56
2022/11/20 02:58:53;;;;;;;0.93;0.93;;;4.10;97.30;3.10;95415.00;;;;5094088;28;20226;-58
2022/11/20 03:01:20;;;;;;;1.23;1.23;;;4.10;98.00;3.20;95421.00;;;;5094087;28;20609;-57
2022/11/20 03:03:48;;;;;;;0.50;0.50;;;4.00;98.40;3.10;95419.00;;;;5094523;28;20221;-56
2022/11/20 03:06:15;;;;;;;1.17;1.17;;;3.90;97.30;3.00;95409.00;;;;5094056;28;20199;-56
2022/11/20 03:08:42;;;;;;;1.03;1.00;;;3.90;98.40;3.30;95416.00;;;;5093963;28;20199;-56
2022/11/20 03:11:09;;;;;;;0.70;0.70;;;4.10;98.40;3.30;95432.00;;;;5093889;28;20226;-56
2022/11/20 03:13:36;;;;;;;1.00;0.90;;;4.20;98.90;3.10;95421.00;;;;5093995;28;20203;-56
2022/11/20 03:16:11;;;;;;;0.80;0.80;;;4.00;96.90;3.10;95420.00;;;;5093651;28;20218;-56
2022/11/20 03:18:38;;;;;;;0.77;0.77;;;4.00;98.30;3.10;95409.00;;;;5093878;28;20201;-56
2022/11/20 03:21:09;;;;;;;0.83;0.83;;;4.10;98.70;3.20;95418.00;;;;5093662;28;20214;-56
2022/11/20 03:23:36;;;;;;;0.73;0.73;;;4.10;99.90;3.20;95418.00;;;;5093851;28;20194;-57
2022/11/20 03:26:12;;;;;;;0.60;0.60;;;4.20;97.70;3.30;95414.00;;;;5093803;28;20190;-56
2022/11/20 03:28:40;;;;;;;0.70;0.70;;;;;3.20;95414.00;;;;5093669;28;20204;-55
2022/11/20 03:31:09;;;;;;;0.70;0.70;;;4.10;97.90;3.10;95413.00;;;;5076102;28;20270;-56
2022/11/20 03:33:36;;;;;;;0.60;0.60;;;4.00;98.40;3.20;95403.00;;;;5093787;28;20227;-59
2022/11/20 03:36:04;;;;;;;0.60;0.60;;;4.00;98.30;3.20;95368.00;;;;5093700;28;20219;-60
2022/11/20 03:38:32;;;;;;;0.80;0.80;;;4.10;99.00;3.30;95419.00;;;;5093656;28;20312;-56
2022/11/20 03:41:01;;;;;;;1.43;1.33;;;4.20;98.40;3.30;95391.00;;;;5093750;28;20272;-56
2022/11/20 03:43:27;;;;;;;1.07;1.07;;;4.30;97.40;3.40;95401.00;;;;5093666;28;20241;-56
2022/11/20 03:45:55;;;;;;;0.60;0.60;;;4.30;97.20;3.40;95414.00;;;;5093557;28;20202;-56
2022/11/20 03:48:21;;;;;;;0.77;0.77;;;4.30;97.70;3.40;95408.00;;;;5093498;28;20267;-56
2022/11/20 03:50:48;;;;;;;0.93;0.93;;;4.30;97.90;3.60;95409.00;;;;5093374;28;20488;-56
2022/11/20 03:53:17;;;;;;;0.60;0.60;;;4.50;97.40;3.60;95401.00;;;;5093360;28;20240;-56
2022/11/20 03:55:44;;;;;;;1.13;1.13;;;4.40;98.00;3.40;95401.00;;;;5095429;28;20222;-56
2022/11/20 03:58:11;;;;;;;0.60;0.60;;;4.30;97.60;3.50;95397.00;;;;5097009;28;20219;-56
2022/11/20 04:00:37;;;;;;;0.87;0.87;;;4.30;97.30;3.50;95407.00;;;;5096892;28;20226;-56
2022/11/20 04:03:04;;;;;;;0.73;0.73;;;4.40;97.20;3.50;95399.00;;;;5097025;28;20202;-57
2022/11/20 04:05:34;;;;;;;1.37;1.27;;;4.30;97.40;3.40;95399.00;;;;5096855;28;20206;-57
2022/11/20 04:08:02;;;;;;;1.10;1.10;;;4.30;98.40;3.50;95404.00;;;;5096872;28;20213;-62
2022/11/20 04:10:29;;;;;;;0.87;0.87;;;4.30;97.80;3.50;95400.00;;;;5096955;28;20191;-56
2022/11/20 04:12:55;;;;;;;0.90;0.90;;;4.30;97.80;3.40;95413.00;;;;5096747;28;20293;-56
2022/11/20 04:15:21;;;;;;;0.60;0.60;;;4.30;98.40;3.50;95402.00;;;;5096778;28;20244;-56
2022/11/20 04:17:48;;;;;;;1.30;1.20;;;4.40;98.50;3.60;95399.00;;;;5096603;28;20222;-59
2022/11/20 04:20:15;;;;;;;0.70;0.70;;;4.40;99.10;3.70;95401.00;;;;5096695;28;20214;-56
2022/11/20 04:22:41;;;;;;;0.77;0.77;;;4.50;98.10;3.60;95397.00;;;;5096544;28;20206;-58
2022/11/20 04:25:09;;;;;;;0.90;0.90;;;4.50;98.80;3.60;95382.00;;;;5096620;28;20213;-57
2022/11/20 04:27:35;;;;;;;0.80;0.80;;;4.40;98.30;3.50;95407.00;;;;5096583;28;20191;-56
2022/11/20 04:30:05;;;;;;;0.50;0.50;;;4.50;98.70;3.70;95389.00;;;;5096501;28;20586;-57
2022/11/20 04:32:31;;;;;;;0.70;0.70;;;4.50;99.40;3.80;95386.00;;;;5096506;28;20275;-56
2022/11/20 04:34:58;;;;;;;0.70;0.70;;;4.60;97.80;3.70;95391.00;;;;5095325;28;20540;-56
2022/11/20 04:37:25;;;;;;;0.87;0.87;;;4.50;98.20;3.70;95390.00;;;;5095631;28;20230;-56
2022/11/20 04:39:51;;;;;;;1.10;1.10;;;4.60;98.50;3.70;95391.00;;;;5078604;28;20258;-56
2022/11/20 04:42:29;;;;;;;0.90;0.90;;;4.60;98.20;3.60;95403.00;;;;5096501;28;20210;-56
2022/11/20 04:44:57;;;;;;;0.77;0.77;;;4.50;98.20;3.60;95384.00;;;;5096292;28;20195;-56
2022/11/20 04:47:23;;;;;;;0.83;0.83;;;4.50;98.90;3.70;95401.00;;;;5096157;28;20210;-60
2022/11/20 04:49:50;;;;;;;0.60;0.60;;;4.60;98.50;3.70;95395.00;;;;5096380;28;20281;-56
2022/11/20 04:52:16;;;;;;;0.60;0.60;;;4.60;98.60;3.70;95402.00;;;;5096036;28;20237;-57
2022/11/20 04:54:43;;;;;;;0.90;0.90;;;4.50;99.00;3.70;95390.00;;;;5096170;28;20205;-56
2022/11/20 04:57:14;;;;;;;0.83;0.83;;;4.50;99.60;3.70;95393.00;;;;5095990;28;20238;-56
2022/11/20 04:59:41;;;;;;;0.80;0.80;;;4.60;99.20;3.70;95389.00;;;;5096031;28;20631;-56
2022/11/20 05:02:07;;;;;;;0.80;0.80;;;4.50;99.90;3.90;95393.00;;;;5095946;28;20217;-56
2022/11/20 05:04:34;;;;;;;0.70;0.70;;;4.60;99.90;4.00;95390.00;;;;5094966;28;20202;-56
2022/11/20 05:07:02;;;;;;;0.70;0.70;;;4.80;98.70;4.10;95395.00;;;;5094821;28;20197;-58
2022/11/20 05:09:30;;;;;;;0.70;0.70;;;4.90;98.00;4.00;95390.00;;;;5095925;28;20198;-58
2022/11/20 05:11:57;;;;;;;0.70;0.70;;;4.90;98.20;4.20;95392.00;;;;5096052;28;20635;-56
2022/11/20 05:14:25;;;;;;;0.50;0.50;;;5.00;97.40;4.30;95392.00;;;;5095746;28;20351;-56
2022/11/20 05:16:52;;;;;;;0.60;0.60;;;5.10;97.40;4.30;95394.00;;;;5077949;28;20232;-56
2022/11/20 05:19:20;;;;;;;0.93;0.93;;;5.10;96.80;4.40;95385.00;;;;5095706;28;20222;-56
2022/11/20 05:21:47;;;;;;;0.60;0.60;;;5.20;96.50;4.40;95389.00;;;;5095713;28;20525;-57
2022/11/20 05:24:15;;;;;;;0.73;0.73;;;5.30;96.70;4.40;95382.00;;;;5095620;28;20545;-56
2022/11/20 05:26:42;;;;;;;0.63;0.63;;;5.20;97.10;4.50;95390.00;;;;5095620;28;20187;-58
2022/11/20 05:29:11;;;;;;;0.50;0.50;;;;;4.50;95389.00;;;;5077720;28;20198;-57
2022/11/20 05:31:40;;;;;;;0.80;0.80;;;5.40;99.80;4.60;95387.00;;;;5095513;28;20610;-56
2022/11/20 05:34:07;;;;;;;0.60;0.60;;;5.30;97.70;4.50;95385.00;;;;5095929;28;20640;-56
2022/11/20 05:36:35;;;;;;;0.73;0.73;;;5.30;97.90;4.50;95395.00;;;;5077637;28;20273;-57
2022/11/20 05:39:02;;;;;;;0.93;0.93;;;5.30;98.20;4.60;95393.00;;;;5095472;28;20202;-56
2022/11/20 05:41:29;;;;;;;0.67;0.67;;;5.30;98.10;4.40;95356.00;;;;5094537;28;20229;-56
2022/11/20 05:43:58;;;;;;;0.90;0.90;;;5.20;98.60;4.40;95398.00;;;;5095495;28;20198;-56
2022/11/20 05:46:27;;;;;;;0.60;0.60;;;5.20;99.70;4.60;95384.00;;;;5095290;28;20255;-56
2022/11/20 05:48:54;;;;;;;0.90;0.90;;;5.30;98.40;4.50;95387.00;;;;5095394;28;20245;-56
2022/11/20 05:51:21;;;;;;;0.70;0.70;;;5.30;98.40;4.50;95389.00;;;;5095263;28;20213;-56
2022/11/20 05:53:47;;;;;;;0.63;0.63;;;5.20;98.90;4.30;95381.00;;;;5095070;28;20222;-56
2022/11/20 05:56:17;;;;;;;0.87;0.87;;;5.10;99.90;4.20;95389.00;;;;5095162;28;20211;-56
2022/11/20 05:58:47;;;;;;;0.90;0.90;;;;;4.20;95395.00;;;;5095332;28;20248;-56
2022/11/20 06:01:20;;;;;;;0.70;0.70;;;;;4.20;95400.00;;;;5095111;28;20198;-55
2022/11/20 06:03:50;;;;;;;0.73;0.73;;;5.00;99.90;4.10;95391.00;;;;5077375;28;20198;-56
2022/11/20 06:06:18;;;;;;;0.80;0.80;;;5.00;99.90;4.30;95393.00;;;;5095101;28;20851;-56
2022/11/20 06:08:45;;;;;;;0.80;0.80;;;5.10;99.90;4.30;95367.00;;;;5094927;28;20520;-55
2022/11/20 06:11:14;;;;;;;0.70;0.70;;;5.10;99.90;4.30;95385.00;;;;5094830;28;20214;-56
2022/11/20 06:13:41;;;;;;;0.67;0.67;;;5.20;99.70;4.40;95359.00;;;;5094908;28;20666;-56
2022/11/20 06:16:07;;;;;;;0.70;0.70;;;5.10;99.90;4.30;95387.00;;;;5094694;28;20234;-56
2022/11/20 06:18:36;;;;;;;1.03;1.03;;;5.10;99.90;4.30;95386.00;;;;5094591;28;20203;-56
2022/11/20 06:21:06;;;;;;;0.60;0.60;;;5.20;99.60;4.30;95377.00;;;;5076863;28;20195;-57
2022/11/20 06:23:34;;;;;;;0.70;0.70;;;5.00;99.70;4.20;95389.00;;;;5094830;28;20199;-58
2022/11/20 06:26:03;;;;;;;0.60;0.60;;;5.00;99.90;4.20;95385.00;;;;5094646;28;20289;-58
2022/11/20 06:28:29;;;;;;;0.70;0.70;;;5.00;99.90;4.10;95378.00;;;;5094730;28;20199;-59
2022/11/20 06:30:56;;;;;;;1.10;1.10;;;;;4.10;95381.00;;;;5094734;28;20194;-62
2022/11/20 06:33:23;;;;;;;1.00;1.00;;;5.10;99.80;4.20;95377.00;;;;5094886;28;20219;-64
2022/11/20 06:35:49;;;;;;;0.60;0.60;;;5.00;99.50;4.20;95392.00;;;;5094567;28;20215;-64
2022/11/20 06:38:18;;;;;;;0.70;0.70;;;5.00;99.90;4.20;95382.00;;;;5094643;28;20662;-57
2022/11/20 06:40:45;;;;;;;0.70;0.70;;;5.00;99.90;4.30;95383.00;;;;5094644;28;20256;-56
2022/11/20 06:43:11;;;;;;;0.77;0.77;;;5.00;99.90;4.20;95377.00;;;;5094523;28;20756;-56
2022/11/20 06:45:37;;;;;;;0.80;0.80;;;5.10;99.90;4.20;95378.00;;;;5094386;28;20206;-59
2022/11/20 06:48:06;;;;;;;0.77;0.77;;;5.00;99.90;4.20;95383.00;;;;5093607;28;20226;-56
2022/11/20 06:50:36;;;;;;;0.97;0.97;;;5.00;99.90;4.20;95383.00;;;;5094212;28;20332;-62
2022/11/20 06:53:05;;;;;;;0.67;0.67;;;5.10;99.60;4.40;95388.00;;;;5093655;28;20202;-58
2022/11/20 06:55:32;;;;;;;0.87;0.87;;;5.20;99.50;4.30;95397.00;;;;5094169;28;20226;-56
2022/11/20 06:57:59;;;;;;;0.80;0.80;;;5.10;99.40;4.20;95393.00;;;;5094130;28;20260;-56
2022/11/20 07:00:25;;;;;;;1.20;1.20;;;5.10;99.90;4.20;95387.00;;;;5094146;28;20206;-56
2022/11/20 07:02:56;;;;;;;1.07;0.97;;;5.10;99.90;4.30;95392.00;;;;5094555;28;20213;-60
2022/11/20 07:05:22;;;;;;;0.70;0.70;;;5.10;99.90;4.40;95390.00;;;;5094303;28;20191;-57
2022/11/20 07:07:49;;;;;;;0.80;0.80;;;5.20;99.50;4.40;95394.00;;;;5094150;28;20191;-56
2022/11/20 07:10:15;;;;;;;0.67;0.67;;;5.20;99.40;4.50;95395.00;;;;5094003;28;20210;-56
2022/11/20 07:12:42;;;;;;;0.90;0.90;;;5.30;99.40;4.50;95396.00;;;;5093971;28;20218;-56
2022/11/20 07:15:09;;;;;;;0.97;0.97;;;5.30;99.00;4.60;95399.00;;;;5093949;28;20717;-56
2022/11/20 07:17:36;;;;;;;0.60;0.60;;;5.30;99.00;4.60;95399.00;;;;5094040;28;20239;-56
2022/11/20 07:20:02;;;;;;;1.37;1.27;;;5.50;98.80;4.80;95411.00;;;;5076495;28;20655;-58
2022/11/20 07:22:29;;;;;;;0.50;0.50;;;5.50;97.90;4.60;95410.00;;;;5093728;28;20191;-56
2022/11/20 07:24:55;;;;;;;1.67;1.57;;;5.40;99.10;4.60;95413.00;;;;5093760;28;20622;-58
2022/11/20 07:27:21;;;;;;;6.07;3.40;;;5.40;98.70;4.70;95413.00;;;;5093845;28;20259;-56
2022/11/20 07:29:51;;;;;;;1.00;1.00;;;5.50;99.00;4.80;95423.00;;;;5093288;28;20301;-59
2022/11/20 07:32:18;;;;;;;2.23;1.20;;;5.60;98.70;4.80;95417.00;;;;5093702;28;20214;-57
2022/11/20 07:34:46;;;;;;;0.70;0.70;;;5.60;98.40;4.90;95417.00;;;;5093668;28;20222;-56
2022/11/20 07:37:15;;;;;;;0.70;0.70;;;5.60;98.30;4.80;95424.00;;;;5093640;28;20234;-56
2022/11/20 07:39:42;;;;;;;0.70;0.70;;;5.60;97.70;4.80;95419.00;;;;5093563;28;20191;-56
2022/11/20 07:42:09;;;;;;;0.60;0.60;;;5.60;97.80;4.90;95427.00;;;;5092810;28;20203;-56
2022/11/20 07:44:36;;;;;;;0.63;0.63;;;5.70;98.60;4.90;95419.00;;;;5093467;28;20220;-56
2022/11/20 07:47:03;;;;;;;1.30;1.30;;;5.60;96.60;4.80;95436.00;;;;5092536;28;20222;-58
2022/11/20 07:49:30;;;;;;;0.60;0.60;;;5.60;97.90;4.90;95443.00;;;;5093417;28;20558;-55
2022/11/20 07:51:56;;;;;;;0.90;0.90;;;5.70;99.30;4.80;95435.00;;;;5093325;28;20226;-56
2022/11/20 07:54:25;;;;;;;0.70;0.70;;;5.60;98.90;4.90;95438.00;;;;5093365;28;20225;-56
2022/11/20 07:56:51;;;;;;;0.70;0.70;;;5.70;99.20;4.90;95415.00;;;;5093237;28;20231;-56
2022/11/20 07:59:18;;;;;;;0.80;0.80;;;5.70;98.60;5.00;95440.00;;;;5093442;28;20210;-57
2022/11/20 08:01:44;;;;;;;1.00;1.00;;;5.70;98.70;4.70;95425.00;;;;5093149;28;20275;-55
2022/11/20 08:04:11;;;;;;;0.87;0.87;;;5.60;99.00;4.90;95445.00;;;;5093231;28;20639;-56
2022/11/20 08:06:37;;;;;;;0.70;0.70;;;5.70;99.50;4.90;95446.00;;;;5092192;28;20524;-56
2022/11/20 08:09:04;;;;;;;0.80;0.80;;;5.70;99.00;4.90;95449.00;;;;5093194;28;20229;-55
2022/11/20 08:14:18;;;;;;;0.70;0.70;;;5.60;99.00;5.00;95444.00;;;;5092960;28;20309;-56
2022/11/20 08:16:47;;;;;;;0.90;0.90;;;5.70;98.90;5.00;95460.00;;;;5093080;28;20270;-55
2022/11/20 08:19:17;;;;;;;0.70;0.70;;;5.70;99.20;5.00;95454.00;;;;5093099;28;20412;-55
2022/11/20 08:21:44;;;;;;;0.77;0.77;;;5.70;98.90;4.90;95454.00;;;;5093162;28;20450;-55
2022/11/20 08:24:11;;;;;;;0.70;0.70;;;5.70;98.60;5.00;95459.00;;;;5092982;28;20198;-56
2022/11/20 08:26:41;;;;;;;0.70;0.70;;;5.80;98.00;5.00;95461.00;;;;5092957;28;20195;-57
2022/11/20 08:29:10;;;;;;;0.70;0.70;;;5.80;98.80;4.90;95452.00;;;;5092928;28;20226;-56
2022/11/20 08:31:36;;;;;;;0.93;0.93;;;5.70;98.90;5.10;95454.00;;;;5092851;28;21085;-56
2022/11/20 08:34:05;;;;;;;0.77;0.77;;;5.80;98.50;5.10;95463.00;;;;5092814;28;20247;-56
2022/11/20 08:36:34;;;;;;;0.80;0.80;;;5.80;98.20;4.90;95469.00;;;;5074988;28;20706;-57
2022/11/20 08:39:01;;;;;;;0.90;0.90;;;5.70;99.90;5.00;95473.00;;;;5074845;28;20597;-56
2022/11/20 08:41:27;;;;;;;0.80;0.80;;;5.80;99.90;5.10;95468.00;;;;5093950;28;20203;-58
2022/11/20 08:43:57;;;;;;;0.60;0.60;;;5.80;99.50;5.00;95470.00;;;;5096244;28;20527;-55
2022/11/20 08:46:25;;;;;;;0.77;0.77;;;5.80;98.80;5.10;95477.00;;;;5096396;28;20198;-55
2022/11/20 08:48:54;;;;;;;0.57;0.57;;;5.80;98.70;4.80;95472.00;;;;5096237;28;20241;-55
2022/11/20 08:51:21;;;;;;;0.70;0.70;;;5.70;99.70;4.80;95482.00;;;;5096205;28;20221;-55
2022/11/20 08:53:50;;;;;;;0.70;0.70;;;;;4.80;95487.00;;;;5094985;28;20334;-56
2022/11/20 08:56:18;;;;;;;0.63;0.63;;;;;4.80;95488.00;;;;5078520;28;20219;-56
2022/11/20 08:58:47;;;;;;;1.30;1.00;;;;;4.80;95492.00;;;;5095931;28;20658;-55
2022/11/20 09:01:13;;;;;;;0.60;0.60;;;;;4.80;95483.00;;;;5078450;28;20217;-56
2022/11/20 09:03:41;;;;;;;0.50;0.50;;;;;4.80;95488.00;;;;5095770;28;20195;-56
2022/11/20 09:06:08;;;;;;;0.60;0.60;;;;;4.80;95487.00;;;;5096062;28;20195;-56
2022/11/20 09:08:36;;;;;;;0.80;0.80;;;;;4.60;95483.00;;;;5078141;28;20627;-56
2022/11/20 09:11:04;;;;;;;0.50;0.50;;;;;4.60;95485.00;;;;5095799;28;20302;-55
2022/11/20 09:13:31;;;;;;;1.23;1.13;;;;;4.80;95494.00;;;;5095793;28;20233;-56
2022/11/20 09:16:00;;;;;;;1.00;1.00;;;;;4.60;95496.00;;;;5077705;28;20253;-56
2022/11/20 09:18:28;;;;;;;0.67;0.67;;;;;4.70;95495.00;;;;5095697;28;20213;-56
2022/11/20 09:20:58;;;;;;;0.80;0.80;;;;;4.70;95491.00;;;;5095614;28;20210;-56
2022/11/20 09:23:25;;;;;;;0.63;0.63;;;;;4.80;95489.00;;;;5078000;28;20263;-56
2022/11/20 09:25:52;;;;;;;0.80;0.80;;;;;4.70;95490.00;;;;5078012;28;20203;-56
2022/11/20 09:28:19;;;;;;;0.70;0.70;;;;;4.80;95492.00;;;;5077831;28;20329;-58
2022/11/20 09:30:46;;;;;;;0.97;0.97;;;;;4.80;95495.00;;;;5095503;28;20263;-59
2022/11/20 09:33:13;;;;;;;0.60;0.60;;;;;4.90;95490.00;;;;5095662;28;20301;-57
2022/11/20 09:35:40;;;;;;;1.73;1.33;;;;;5.00;95496.00;;;;5095531;28;20190;-56
2022/11/20 09:38:07;;;;;;;0.50;0.50;;;;;4.80;95494.00;;;;5096152;28;20227;-55
2022/11/20 09:40:38;;;;;;;0.60;0.60;;;;;4.90;95502.00;;;;5095525;28;20210;-55
2022/11/20 09:43:15;;;;;;;0.60;0.60;;;;;5.00;95502.00;;;;5095599;28;20260;-55
2022/11/20 09:45:53;;;;;;;1.10;1.10;;;;;5.10;95501.00;;;;5095121;28;20199;-58
2022/11/20 09:48:36;;;;;;;1.13;1.13;;;;;5.10;95510.00;;;;5077393;28;20313;-55
2022/11/20 09:51:13;;;;;;;0.60;0.60;;;;;5.20;95498.00;;;;5095780;28;20198;-57
2022/11/20 09:53:55;;;;;;;1.00;1.00;;;;;5.40;95494.00;;;;5094813;28;20191;-56
2022/11/20 09:56:23;;;;;;;1.10;1.07;;;;;5.60;95508.00;;;;5095267;28;20223;-56
2022/11/20 09:58:52;;;;;;;2.10;1.10;;;;;5.50;95499.00;;;;5095255;28;20187;-55
2022/11/20 10:01:22;;;;;;;0.83;0.83;;;;;5.60;95512.00;;;;5095064;28;20203;-58
2022/11/20 10:03:58;;;;;;;0.70;0.70;;;;;5.40;95517.00;;;;5077316;28;20511;-56
2022/11/20 10:06:30;;;;;;;0.60;0.60;;;;;5.40;95518.00;;;;5095177;28;20198;-57
2022/11/20 10:09:08;;;;;;;0.70;0.70;;;;;5.40;95511.00;;;;5095129;28;20210;-56
2022/11/20 10:11:46;;;;;;;0.67;0.67;;;;;5.40;95513.00;;;;5094982;28;20194;-56
2022/11/20 10:14:26;;;;;;;0.60;0.60;;;;;5.50;95510.00;;;;5095343;28;20202;-57
2022/11/20 10:17:03;;;;;;;0.50;0.50;;;;;5.50;95509.00;;;;5077186;28;20222;-56
2022/11/20 10:19:55;;;;;;;0.50;0.50;;;;;5.50;95496.00;;;;5094907;28;20600;-56
2022/11/20 10:22:40;;;;;;;0.60;0.60;;;;;5.50;95494.00;;;;5094815;28;20194;-56
2022/11/20 10:25:14;;;;;;;0.70;0.70;;;;;5.50;95512.00;;;;5094583;28;20191;-56
2022/11/20 10:28:10;;;;;;;0.60;0.60;;;;;5.60;95494.00;;;;5094751;28;20268;-56
2022/11/20 10:30:42;;;;;;;0.60;0.60;;;;;5.60;95495.00;;;;5076315;28;20578;-56
2022/11/20 10:33:17;;;;;;;0.80;0.80;;;;;5.70;95509.00;;;;5094659;28;20237;-57
2022/11/20 10:35:47;;;;;;;0.60;0.60;;;;;5.80;95503.00;;;;5094626;28;20240;-56
2022/11/20 10:38:20;;;;;;;0.73;0.73;;;;;5.70;95500.00;;;;5094704;28;20205;-56
2022/11/20 10:40:51;;;;;;;0.80;0.80;;;;;5.70;95503.00;;;;5094514;28;20213;-57
2022/11/20 10:43:25;;;;;;;0.70;0.70;;;;;5.60;95496.00;;;;5094610;28;20198;-56
2022/11/20 10:45:57;;;;;;;0.60;0.60;;;;;5.70;95511.00;;;;5094383;28;20205;-55
2022/11/20 10:48:26;;;;;;;0.60;0.60;;;;;5.60;95501.00;;;;5094382;28;20650;-55
2022/11/20 10:51:03;;;;;;;0.60;0.60;;;;;5.70;95485.00;;;;5094338;28;20540;-56
2022/11/20 10:53:58;;;;;;;0.60;0.60;;;;;5.80;95502.00;;;;5094344;28;20198;-56
2022/11/20 10:56:35;;;;;;;0.77;0.77;;;;;5.80;95497.00;;;;5094335;28;20352;-56
2022/11/20 10:59:28;;;;;;;0.70;0.70;;;;;5.90;95491.00;;;;5094466;28;20255;-56
2022/11/20 11:01:55;;;;;;;0.63;0.63;;;;;5.80;95502.00;;;;5090969;28;20244;-58
2022/11/20 11:04:35;;;;;;;10.93;2.30;;;;;5.70;95494.00;;;;5093961;28;20189;-56
2022/11/20 11:07:11;;;;;;;1.13;1.13;;;;;5.90;95483.00;;;;5094414;28;20203;-59
2022/11/20 11:09:42;;;;;;;0.80;0.80;;;;;6.20;95473.00;;;;5076712;28;20194;-59
2022/11/20 11:12:10;;;;;;;0.60;0.60;;;7.20;91.70;6.90;95451.00;;;;5076327;28;20217;-57
2022/11/20 11:14:49;;;;;;;1.00;0.97;;;7.20;89.20;7.60;95439.00;;;;5094237;28;20491;-57
2022/11/20 11:17:27;;;;;;;0.80;0.80;;;7.70;91.10;8.40;95420.00;;;;5094052;28;20318;-56
2022/11/20 11:20:04;;;;;;;0.50;0.50;;;8.50;86.10;8.30;95407.00;;;;5094197;28;20649;-57
2022/11/20 11:22:44;;;;;;;0.50;0.50;;;8.70;81.80;9.30;95398.00;;;;5093904;28;20182;-57
2022/11/20 11:25:24;;;;;;;0.60;0.60;;;9.20;81.70;9.10;95397.00;;;;5093907;28;20210;-56
2022/11/20 11:27:52;;;;;;;0.50;0.50;;;9.40;77.30;10.20;95387.00;;;;5093767;28;20204;-56
2022/11/20 11:30:20;;;;;;;0.90;0.80;;;10.30;73.40;10.20;95389.00;;;;5093885;28;20198;-56
2022/11/20 11:32:47;;;;;;;0.70;0.70;;;10.20;72.50;10.50;95383.00;;;;5093866;28;20205;-59
2022/11/20 11:35:25;;;;;;;0.70;0.70;;;10.40;64.90;10.90;95371.00;;;;5092807;28;20199;-57
2022/11/20 11:38:02;;;;;;;0.63;0.63;;;11.00;59.80;10.80;95370.00;;;;5093636;28;20221;-57